Time;durP1;ratioP1;P1;durP2;ratioP2;P2;SDS_P1;SDS_P2;PMS_P1;PMS_P2;Temp;Humidity;BMP_temperature;BMP_pressure;BME280_temperature;BME280_humidity;BME280_pressure;Samples;Min_cycle;Max_cycle;Signal;HPM_P1;HPM_P2
2023/01/30 00:00:33;;;;;;;27.00;14.02;;;3.10;99.90;;;1.32;100.00;100581.25;4991806;28;20118;-72
2023/01/30 00:02:59;;;;;;;30.43;15.47;;;3.10;99.90;;;1.28;100.00;100576.19;4992844;28;20560;-72
2023/01/30 00:05:25;;;;;;;30.48;15.15;;;3.10;99.90;;;1.29;100.00;100561.75;4992574;28;20327;-72
2023/01/30 00:07:51;;;;;;;26.38;14.18;;;3.10;99.90;;;1.33;100.00;100539.97;4992338;28;20088;-72
2023/01/30 00:10:17;;;;;;;28.35;14.80;;;3.10;99.90;;;1.35;100.00;100525.34;4992616;28;20394;-72
2023/01/30 00:12:43;;;;;;;31.65;15.40;;;3.10;99.90;;;1.38;100.00;100537.63;4992010;28;20525;-73
2023/01/30 00:15:09;;;;;;;29.08;14.38;;;3.10;99.90;;;1.37;100.00;100503.69;4992304;28;20043;-72
2023/01/30 00:17:34;;;;;;;27.92;14.68;;;3.10;99.90;;;1.35;100.00;100519.13;4993702;28;20064;-73
2023/01/30 00:20:00;;;;;;;27.25;13.48;;;3.10;99.90;;;1.37;100.00;100525.19;4996083;28;20389;-72
2023/01/30 00:22:26;;;;;;;30.40;14.90;;;3.10;99.90;;;1.39;100.00;100496.31;4994773;28;20038;-72
2023/01/30 00:24:51;;;;;;;27.20;13.65;;;3.10;99.90;;;1.43;100.00;100506.56;5007253;28;20057;-72
2023/01/30 00:27:17;;;;;;;30.25;15.23;;;3.20;99.90;;;1.41;100.00;100545.38;4996115;28;20375;-73
2023/01/30 00:29:43;;;;;;;31.33;16.13;;;3.10;99.90;;;1.43;100.00;100536.13;5005475;28;20035;-72
2023/01/30 00:32:09;;;;;;;30.98;14.48;;;3.20;99.90;;;1.46;100.00;100524.22;4995926;28;20042;-72
2023/01/30 00:34:34;;;;;;;32.00;16.30;;;3.20;99.90;;;1.46;100.00;100510.78;4995711;28;20031;-72
2023/01/30 00:37:00;;;;;;;29.98;15.93;;;3.20;99.90;;;1.46;100.00;100537.66;4994730;28;20050;-72
2023/01/30 00:39:26;;;;;;;28.05;14.73;;;3.20;99.90;;;1.46;100.00;100518.84;4995861;28;20037;-72
2023/01/30 00:47:22;;;;;;;31.73;15.63;;;3.30;99.90;;;1.62;100.00;100504.63;4995716;28;20038;-71
2023/01/30 00:49:48;;;;;;;28.42;14.55;;;3.40;99.90;;;1.62;100.00;100490.34;5006460;28;20038;-70
2023/01/30 00:52:15;;;;;;;28.83;14.90;;;3.30;99.90;;;1.63;100.00;100497.41;4996363;28;20080;-72
2023/01/30 00:54:41;;;;;;;28.45;15.18;;;3.40;99.90;;;1.65;100.00;100493.56;4995573;28;20331;-72
2023/01/30 00:57:06;;;;;;;29.38;15.20;;;3.40;99.90;;;1.67;100.00;100490.72;4995308;28;20049;-71
2023/01/30 00:59:32;;;;;;;33.00;16.27;;;3.40;99.90;;;1.65;100.00;100479.28;5001062;28;20085;-71
2023/01/30 01:01:58;;;;;;;33.63;16.17;;;3.40;99.90;;;1.71;100.00;100487.50;4999712;28;20049;-73
2023/01/30 01:04:24;;;;;;;32.97;16.75;;;3.40;99.90;;;1.77;100.00;100458.31;4995516;28;20046;-71
2023/01/30 01:06:50;;;;;;;34.03;15.80;;;3.50;99.90;;;1.83;100.00;100461.16;4995363;28;20675;-72
2023/01/30 01:09:15;;;;;;;33.03;15.18;;;3.50;99.90;;;1.82;100.00;100458.66;4995111;28;20351;-72
2023/01/30 01:11:41;;;;;;;32.65;16.55;;;3.50;99.90;;;1.79;100.00;100458.97;4994390;28;20031;-72
2023/01/30 01:14:07;;;;;;;32.97;17.27;;;3.50;99.90;;;1.74;100.00;100455.94;4992696;28;20045;-73
2023/01/30 01:16:34;;;;;;;36.72;17.70;;;3.50;99.90;;;1.67;100.00;100451.19;4992428;28;20065;-72
2023/01/30 01:19:00;;;;;;;37.83;18.00;;;3.40;99.90;;;1.64;100.00;100440.75;4993422;28;20066;-72
2023/01/30 01:21:26;;;;;;;34.97;17.50;;;3.40;99.90;;;1.67;100.00;100439.59;4994779;28;20062;-72
2023/01/30 01:23:56;;;;;;;34.20;16.38;;;3.40;99.90;;;1.65;100.00;100415.56;5006633;28;20519;-72
2023/01/30 01:26:23;;;;;;;33.45;17.23;;;3.40;99.90;;;1.67;100.00;100401.94;4993458;28;20034;-72
2023/01/30 01:28:53;;;;;;;38.03;17.52;;;3.40;99.90;;;1.71;100.00;100414.06;4993666;28;20038;-72
2023/01/30 01:31:19;;;;;;;36.05;17.63;;;3.40;99.90;;;1.74;100.00;100412.91;4998327;28;20034;-72
2023/01/30 01:33:46;;;;;;;34.92;17.70;;;3.50;99.90;;;1.73;100.00;100395.91;4999469;28;20407;-72
2023/01/30 01:36:12;;;;;;;33.80;17.70;;;3.40;99.90;;;1.79;100.00;100394.41;4994394;28;20041;-72
2023/01/30 01:38:40;;;;;;;36.92;18.00;;;3.50;99.90;;;1.80;100.00;100374.56;4994351;28;20049;-72
2023/01/30 01:41:06;;;;;;;35.20;17.33;;;3.50;99.90;;;1.71;100.00;100373.72;5007703;28;20457;-72
2023/01/30 01:44:00;;;;;;;36.17;18.33;;;3.50;99.90;;;1.68;100.00;100349.84;4994496;28;20035;-71
2023/01/30 01:46:39;;;;;;;33.95;18.10;;;3.40;99.90;;;1.69;100.00;100343.47;5007941;28;20046;-73
2023/01/30 01:49:23;;;;;;;38.38;18.20;;;3.40;99.90;;;1.64;100.00;100335.88;4993656;28;20129;-73
2023/01/30 01:52:08;;;;;;;38.20;17.90;;;3.40;99.90;;;1.60;100.00;100334.53;4994745;28;20044;-72
2023/01/30 01:54:49;;;;;;;39.25;18.05;;;3.30;99.90;;;1.60;100.00;100325.63;4994691;28;20662;-72
2023/01/30 01:57:32;;;;;;;38.08;19.27;;;3.30;99.90;;;1.61;100.00;100320.06;4992829;28;20066;-72
2023/01/30 02:00:12;;;;;;;37.47;17.88;;;3.40;99.90;;;1.66;100.00;100327.66;5006993;28;20612;-72
2023/01/30 02:02:51;;;;;;;35.17;17.98;;;3.40;99.90;;;1.63;100.00;100331.50;5004287;28;20093;-71
2023/01/30 02:05:19;;;;;;;37.33;18.90;;;3.40;99.90;;;1.63;100.00;100326.13;4998169;28;20129;-72
2023/01/30 02:08:13;;;;;;;35.95;17.85;;;3.40;99.90;;;1.60;100.00;100317.56;5002894;28;20062;-72
2023/01/30 02:11:04;;;;;;;37.58;17.38;;;3.30;99.90;;;1.62;100.00;100312.88;4994401;28;20045;-72
2023/01/30 02:13:30;;;;;;;39.97;18.65;;;3.30;99.90;;;1.57;100.00;100303.41;4993929;28;20038;-72
2023/01/30 02:16:01;;;;;;;35.65;18.10;;;3.30;99.90;;;1.60;100.00;100315.72;4993517;28;20038;-72
2023/01/30 02:18:30;;;;;;;32.55;16.85;;;3.30;99.90;;;1.65;100.00;100305.28;5003124;28;20042;-72
2023/01/30 02:21:51;;;;;;;32.42;16.15;;;3.30;99.90;;;1.75;100.00;100302.44;4993684;28;20038;-72
2023/01/30 02:24:54;;;;;;;33.63;16.10;;;3.40;99.90;;;1.86;100.00;100302.13;5006754;28;20367;-72
2023/01/30 02:27:53;;;;;;;32.00;16.35;;;3.50;99.90;;;2.01;100.00;100290.66;4992597;28;20065;-72
2023/01/30 02:31:02;;;;;;;26.63;14.50;;;3.70;99.90;;;2.12;100.00;100297.56;4987506;28;20069;-72
2023/01/30 02:33:56;;;;;;;29.48;14.43;;;3.80;99.90;;;2.20;100.00;100285.94;4991774;28;20421;-72
2023/01/30 02:36:43;;;;;;;27.33;14.82;;;3.90;99.90;;;2.24;100.00;100273.81;4997355;28;20065;-72
2023/01/30 02:40:07;;;;;;;30.40;15.75;;;3.90;99.90;;;2.33;100.00;100277.34;4997812;28;20065;-72
2023/01/30 02:42:51;;;;;;;30.63;15.25;;;4.00;99.90;;;2.37;100.00;100279.50;4992359;28;20385;-71
2023/01/30 02:45:34;;;;;;;28.48;15.75;;;4.10;99.90;;;2.40;100.00;100271.09;4996573;28;20425;-72
2023/01/30 02:48:05;;;;;;;30.00;15.15;;;4.10;99.90;;;2.46;100.00;100269.53;4993487;28;20084;-73
2023/01/30 02:50:40;;;;;;;28.33;14.88;;;4.20;99.90;;;2.45;100.00;100246.31;4999503;28;20513;-72
2023/01/30 02:53:07;;;;;;;30.90;16.38;;;4.10;99.90;;;2.48;100.00;100229.00;5006897;28;20026;-72
2023/01/30 02:55:33;;;;;;;30.60;16.02;;;4.20;99.90;;;2.50;100.00;100219.72;4993529;28;20405;-72
2023/01/30 02:58:02;;;;;;;30.13;16.52;;;4.20;99.90;;;2.58;100.00;100213.44;4993234;28;20041;-73
2023/01/30 03:01:02;;;;;;;27.42;16.05;;;4.30;99.90;;;2.65;100.00;100227.06;4989546;28;20105;-72
2023/01/30 03:03:45;;;;;;;30.75;16.20;;;4.30;99.90;;;2.69;100.00;100215.78;4989904;28;20061;-72
2023/01/30 03:06:31;;;;;;;32.17;16.10;;;4.40;99.90;;;2.70;100.00;100217.47;4994400;28;20038;-73
2023/01/30 03:09:35;;;;;;;28.83;16.10;;;4.40;99.90;;;2.78;100.00;100215.72;5004650;28;20037;-72
2023/01/30 03:12:17;;;;;;;30.38;15.00;;;4.50;99.90;;;2.77;100.00;100208.66;5007475;28;20085;-73
2023/01/30 03:14:50;;;;;;;31.35;15.75;;;4.50;99.90;;;2.79;100.00;100212.03;4990326;28;20130;-72
2023/01/30 03:17:22;;;;;;;31.00;16.27;;;4.50;99.90;;;2.81;100.00;100209.97;4991552;28;20045;-72
2023/01/30 03:19:47;;;;;;;28.95;15.48;;;4.50;99.90;;;2.83;100.00;100192.63;4995420;28;20486;-72
2023/01/30 03:22:15;;;;;;;27.50;14.80;;;4.50;99.90;;;2.88;100.00;100205.56;4984418;28;20042;-72
2023/01/30 03:24:42;;;;;;;30.27;15.40;;;4.60;99.90;;;2.91;100.00;100191.72;4998271;28;20034;-73
2023/01/30 03:27:11;;;;;;;30.70;16.50;;;4.60;99.90;;;2.90;100.00;100187.34;5001849;28;20057;-73
2023/01/30 03:29:39;;;;;;;33.25;16.73;;;4.60;99.90;;;2.88;100.00;100186.69;4992603;28;20284;-72
2023/01/30 03:32:05;;;;;;;35.38;18.23;;;4.60;99.90;;;2.80;100.00;100195.69;4992039;28;20038;-73
2023/01/30 03:34:31;;;;;;;34.42;18.02;;;4.50;99.90;;;2.74;100.00;100166.75;4991957;28;20485;-73
2023/01/30 03:36:58;;;;;;;37.00;19.48;;;4.40;99.90;;;2.62;100.00;100169.00;4992001;28;20497;-74
2023/01/30 03:39:25;;;;;;;37.85;18.88;;;4.40;99.90;;;2.59;100.00;100159.44;4992092;28;20117;-72
2023/01/30 03:41:52;;;;;;;37.88;19.88;;;4.30;99.90;;;2.53;100.00;100164.66;4991789;28;20046;-72
2023/01/30 03:44:19;;;;;;;46.65;21.50;;;4.20;99.90;;;2.53;100.00;100153.91;4995854;28;20038;-73
2023/01/30 03:46:44;;;;;;;44.25;21.55;;;4.30;99.90;;;2.52;100.00;100149.53;4992849;28;20185;-73
2023/01/30 03:49:10;;;;;;;46.42;21.65;;;4.20;99.90;;;2.49;100.00;100149.88;4999815;28;20133;-73
2023/01/30 03:51:36;;;;;;;41.50;20.98;;;4.20;99.90;;;2.49;100.00;100139.13;4993192;28;20042;-73
2023/01/30 03:54:02;;;;;;;46.95;21.35;;;4.20;99.90;;;2.50;100.00;100121.94;5008586;28;20381;-72
2023/01/30 03:56:29;;;;;;;42.53;19.38;;;4.20;99.90;;;2.53;100.00;100124.28;4997052;28;20116;-73
2023/01/30 03:58:55;;;;;;;46.38;21.90;;;4.20;99.90;;;2.52;100.00;100112.69;4995860;28;20038;-73
2023/01/30 04:01:30;;;;;;;43.95;21.70;;;4.20;99.90;;;2.51;100.00;100107.47;4995480;28;20082;-73
2023/01/30 04:03:56;;;;;;;47.85;21.05;;;4.20;99.90;;;2.51;100.00;100102.91;4999630;28;20467;-73
2023/01/30 04:06:23;;;;;;;39.97;19.77;;;4.20;99.90;;;2.53;100.00;100100.03;5011454;28;20041;-73
2023/01/30 04:08:53;;;;;;;39.83;18.67;;;4.30;99.90;;;2.64;100.00;100099.63;5005869;28;20401;-73
2023/01/30 04:11:32;;;;;;;41.13;19.73;;;4.30;99.90;;;2.61;100.00;100101.84;5012016;28;20039;-73
2023/01/30 04:13:57;;;;;;;39.97;19.25;;;4.30;99.90;;;2.63;100.00;100076.41;5011625;28;20027;-73
2023/01/30 04:16:26;;;;;;;44.70;19.58;;;4.30;99.90;;;2.64;100.00;100080.75;5011617;28;20035;-73
2023/01/30 04:19:10;;;;;;;40.58;19.02;;;4.30;99.90;;;2.72;100.00;100086.13;5002520;28;20620;-73
2023/01/30 04:21:36;;;;;;;46.35;21.13;;;4.40;99.90;;;2.76;100.00;100093.84;5010778;28;20118;-73
2023/01/30 04:24:02;;;;;;;39.75;19.05;;;4.40;99.90;;;2.78;100.00;100083.72;5007131;28;20034;-73
2023/01/30 04:26:28;;;;;;;38.20;18.35;;;4.50;99.90;;;2.79;100.00;100080.84;4996621;28;20036;-74
2023/01/30 04:28:54;;;;;;;39.65;17.95;;;4.50;99.90;;;2.82;100.00;100069.72;4995196;28;20034;-73
2023/01/30 04:31:20;;;;;;;39.97;17.52;;;4.50;99.90;;;2.88;100.00;100050.13;4998832;28;20350;-72
2023/01/30 04:34:00;;;;;;;36.78;17.92;;;4.60;99.90;;;2.86;100.00;100051.31;4996688;28;20051;-73
2023/01/30 04:36:28;;;;;;;35.00;17.02;;;4.60;99.90;;;2.82;100.00;100066.16;5003417;28;20038;-72
2023/01/30 04:38:56;;;;;;;31.58;15.68;;;4.50;99.90;;;2.92;100.00;100076.72;4999496;28;20409;-73
2023/01/30 04:41:23;;;;;;;28.90;14.60;;;4.60;99.90;;;2.91;100.00;100048.91;4994633;28;20377;-73
2023/01/30 04:43:50;;;;;;;29.50;14.82;;;4.60;99.90;;;2.95;100.00;100077.19;4998107;28;20575;-72
2023/01/30 04:46:29;;;;;;;24.48;13.80;;;4.70;99.90;;;2.98;100.00;100052.56;5007812;28;20182;-73
2023/01/30 04:48:56;;;;;;;23.35;12.40;;;4.70;99.90;;;3.03;100.00;100081.66;5010986;28;20034;-72
2023/01/30 04:51:21;;;;;;;24.20;12.20;;;4.70;99.90;;;3.03;100.00;100046.63;4995743;28;20133;-72
2023/01/30 04:53:48;;;;;;;22.15;11.80;;;4.70;99.90;;;3.02;100.00;100050.34;5004711;28;20030;-73
2023/01/30 04:56:14;;;;;;;22.15;11.23;;;4.70;99.90;;;2.99;100.00;100051.56;5007903;28;20080;-72
2023/01/30 04:58:40;;;;;;;21.60;11.20;;;4.70;99.90;;;3.05;100.00;100047.31;5010905;28;20030;-72
2023/01/30 05:01:37;;;;;;;19.33;10.48;;;4.80;99.90;;;3.05;100.00;100059.94;4994297;28;20474;-73
2023/01/30 05:04:05;;;;;;;19.63;10.55;;;4.70;99.90;;;3.08;100.00;100032.59;5008739;28;20046;-73
2023/01/30 05:06:32;;;;;;;;;;;4.80;99.90;;;3.14;100.00;100039.94;4995930;28;20065;-72
2023/01/30 05:08:58;;;;;;;18.65;11.20;;;4.80;99.90;;;3.11;100.00;100035.78;4995233;28;19995;-73
2023/01/30 05:11:27;;;;;;;21.50;11.32;;;4.80;99.90;;;3.12;100.00;100023.13;5006161;28;20445;-73
2023/01/30 05:13:53;;;;;;;24.10;11.25;;;4.80;99.90;;;3.14;100.00;100018.38;4994462;28;20046;-73
2023/01/30 05:16:21;;;;;;;23.02;11.80;;;4.80;99.90;;;3.16;100.00;99992.09;4995283;28;20041;-73
2023/01/30 05:18:47;;;;;;;22.52;12.20;;;4.90;99.90;;;3.24;100.00;100061.25;4998500;28;20097;-73
2023/01/30 05:21:18;;;;;;;22.67;11.63;;;4.90;99.90;;;3.22;100.00;100004.84;4995342;28;20088;-72
2023/01/30 05:23:43;;;;;;;22.13;11.65;;;4.90;99.90;;;3.24;100.00;100024.38;4995544;28;20038;-72
2023/01/30 05:26:11;;;;;;;20.05;10.73;;;5.00;99.90;;;3.25;100.00;100028.75;4995447;28;20129;-73
2023/01/30 05:28:37;;;;;;;22.58;11.57;;;5.00;99.90;;;3.26;100.00;100035.81;4995309;28;20437;-72
2023/01/30 05:31:12;;;;;;;21.05;11.18;;;5.00;99.90;;;3.33;100.00;100026.97;4995302;28;20049;-72
2023/01/30 05:33:39;;;;;;;20.45;10.85;;;5.00;99.90;;;3.40;100.00;100017.13;4994900;28;20117;-72
2023/01/30 05:36:06;;;;;;;21.38;11.55;;;5.00;99.90;;;3.34;100.00;100020.56;4994574;28;20342;-73
2023/01/30 05:38:32;;;;;;;19.27;11.10;;;5.00;99.90;;;3.42;100.00;100015.06;4994488;28;20032;-73
2023/01/30 05:41:05;;;;;;;21.85;11.77;;;5.00;99.90;;;3.35;100.00;100028.47;4997581;28;20049;-73
2023/01/30 05:43:32;;;;;;;18.20;10.77;;;5.00;99.90;;;3.39;100.00;100027.09;4994056;28;20045;-72
2023/01/30 05:46:00;;;;;;;19.67;11.07;;;5.00;99.90;;;3.33;100.00;100027.81;4993803;28;20038;-72
2023/01/30 05:48:27;;;;;;;;;;;5.00;99.90;;;3.31;100.00;100033.41;4995247;28;20073;-72
2023/01/30 05:50:56;;;;;;;18.55;10.05;;;5.00;99.90;;;3.35;100.00;100028.47;4994588;28;19979;-73
2023/01/30 05:53:25;;;;;;;17.95;9.20;;;5.00;99.90;;;3.36;100.00;100030.16;4994511;28;20049;-72
2023/01/30 05:56:00;;;;;;;20.33;9.90;;;5.10;99.90;;;3.38;100.00;100014.63;4994541;28;20081;-73
2023/01/30 05:58:27;;;;;;;17.90;9.35;;;5.00;99.90;;;3.37;100.00;100018.34;4998591;28;20042;-73
2023/01/30 06:00:58;;;;;;;17.67;9.50;;;5.10;99.90;;;3.39;100.00;100015.44;4994414;28;20077;-73
2023/01/30 06:03:23;;;;;;;16.48;8.98;;;5.10;99.90;;;3.41;100.00;100025.03;4995153;28;20063;-73
2023/01/30 06:05:49;;;;;;;16.25;9.40;;;5.10;99.90;;;3.47;100.00;100019.91;4995314;28;20397;-73
2023/01/30 06:08:15;;;;;;;15.45;8.68;;;5.10;99.90;;;3.47;100.00;99988.41;4992982;28;20035;-73
2023/01/30 06:10:41;;;;;;;14.95;8.40;;;5.10;99.90;;;3.47;100.00;100018.06;4993611;28;20120;-73
2023/01/30 06:13:09;;;;;;;18.95;9.02;;;5.20;99.90;;;3.53;100.00;100003.84;4994883;28;20398;-72
2023/01/30 06:15:36;;;;;;;15.32;7.85;;;5.20;99.90;;;3.52;100.00;100006.69;4993750;28;20034;-73
2023/01/30 06:18:01;;;;;;;15.88;7.35;;;5.20;99.90;;;3.44;100.00;100000.38;4994653;28;20169;-74
2023/01/30 06:20:27;;;;;;;15.88;7.03;;;5.10;99.90;;;3.42;100.00;99991.66;4994212;28;20437;-73
2023/01/30 06:22:52;;;;;;;12.10;6.15;;;5.20;99.90;;;3.52;100.00;100004.88;4994608;28;20049;-71
2023/01/30 06:25:18;;;;;;;10.48;6.13;;;5.20;99.90;;;3.55;100.00;100004.47;4993848;28;20053;-72
2023/01/30 06:27:47;;;;;;;12.18;5.50;;;5.20;99.90;;;3.54;100.00;100000.13;4994137;28;20038;-72
2023/01/30 06:30:13;;;;;;;13.13;5.97;;;5.20;99.90;;;3.48;100.00;100013.50;4993780;28;20042;-73
2023/01/30 06:32:39;;;;;;;12.57;5.43;;;5.20;99.90;;;3.48;100.00;100011.66;4994099;28;20042;-73
2023/01/30 06:35:05;;;;;;;12.18;5.95;;;5.20;99.90;;;3.54;100.00;100026.22;4993900;28;20030;-73
2023/01/30 06:37:30;;;;;;;14.98;6.28;;;5.20;99.90;;;3.48;100.00;100022.44;5003129;28;20493;-73
2023/01/30 06:39:56;;;;;;;11.95;5.95;;;5.20;99.90;;;3.53;100.00;100046.13;5009325;28;20138;-75
2023/01/30 06:42:22;;;;;;;14.77;6.95;;;5.20;99.90;;;3.60;100.00;100053.31;4993532;28;20085;-72
2023/01/30 06:44:47;;;;;;;12.77;6.43;;;5.30;99.90;;;3.67;100.00;100053.41;4993266;28;20050;-73
2023/01/30 06:47:13;;;;;;;17.80;6.75;;;5.30;99.90;;;3.82;100.00;100053.41;4993561;28;20042;-72
2023/01/30 06:49:39;;;;;;;12.80;6.70;;;5.50;99.90;;;3.85;100.00;100058.44;4992789;28;20038;-73
2023/01/30 06:52:04;;;;;;;12.65;6.10;;;5.50;99.90;;;3.81;100.00;100067.06;4992390;28;20041;-73
2023/01/30 06:54:30;;;;;;;15.00;6.15;;;5.50;99.90;;;3.84;100.00;100067.53;4993666;28;20034;-73
2023/01/30 06:56:56;;;;;;;15.48;6.70;;;5.50;99.90;;;3.81;100.00;100076.03;4993829;28;20042;-74
2023/01/30 06:59:22;;;;;;;12.32;6.78;;;5.50;99.90;;;3.85;100.00;100077.31;4993729;28;20026;-74
2023/01/30 07:01:48;;;;;;;13.18;7.15;;;5.50;99.90;;;3.84;100.00;100069.41;4994398;28;20043;-72
2023/01/30 07:04:13;;;;;;;12.30;6.10;;;5.50;99.90;;;3.89;100.00;100075.91;5008716;28;20724;-72
2023/01/30 07:06:39;;;;;;;12.18;6.43;;;5.50;99.90;;;3.87;100.00;100080.66;5003666;28;20048;-73
2023/01/30 07:09:05;;;;;;;17.42;6.55;;;5.50;99.90;;;3.70;100.00;100079.16;4994366;28;20508;-73
2023/01/30 07:11:31;;;;;;;15.13;5.85;;;5.40;99.90;;;3.64;100.00;100072.69;4994706;28;20107;-72
2023/01/30 07:13:57;;;;;;;15.82;5.75;;;5.30;99.90;;;3.64;100.00;100088.00;4993266;28;20068;-72
2023/01/30 07:16:27;;;;;;;16.45;5.50;;;5.30;99.90;;;3.72;100.00;100072.56;4993153;28;20061;-71
2023/01/30 07:18:57;;;;;;;15.30;5.13;;;5.30;99.90;;;3.74;100.00;100069.69;4993306;28;20064;-72
2023/01/30 07:21:24;;;;;;;13.60;5.45;;;5.40;99.90;;;3.76;100.00;100083.00;4993442;28;20045;-72
2023/01/30 07:23:50;;;;;;;12.18;5.43;;;5.40;99.90;;;3.86;100.00;100072.78;4992638;28;20046;-72
2023/01/30 07:26:15;;;;;;;10.85;4.70;;;5.50;99.90;;;3.84;100.00;100078.34;4991832;28;20038;-72
2023/01/30 07:28:41;;;;;;;13.55;5.53;;;5.50;99.90;;;3.81;100.00;100081.41;4992013;28;20038;-73
2023/01/30 07:31:07;;;;;;;11.77;4.65;;;5.50;99.90;;;3.67;100.00;100082.25;4991249;28;20031;-73
2023/01/30 07:33:33;;;;;;;15.20;3.50;;;5.40;99.90;;;3.81;100.00;100086.81;4990878;28;20034;-72
2023/01/30 07:35:58;;;;;;;12.60;3.53;;;5.50;99.90;;;3.84;100.00;100074.78;4991118;28;20037;-73
2023/01/30 07:38:24;;;;;;;15.95;3.47;;;5.50;99.90;;;3.75;100.00;100079.47;4992130;28;20038;-72
2023/01/30 07:40:50;;;;;;;12.70;3.03;;;5.40;99.90;;;3.66;100.00;100077.88;4992882;28;20042;-73
2023/01/30 07:43:16;;;;;;;10.05;2.55;;;5.30;99.90;;;3.74;100.00;100058.91;4992776;28;20037;-73
2023/01/30 07:45:47;;;;;;;15.90;2.88;;;5.40;99.90;;;3.81;100.00;100064.38;4999494;28;20042;-73
2023/01/30 07:48:17;;;;;;;17.05;3.60;;;5.40;99.90;;;3.81;100.00;100076.03;4998247;28;20053;-73
2023/01/30 07:50:43;;;;;;;12.80;2.50;;;5.40;99.90;;;3.70;100.00;100066.53;4992542;28;20046;-73
2023/01/30 07:53:12;;;;;;;14.55;3.22;;;5.40;99.90;;;3.73;100.00;100082.34;4992543;28;20043;-73
2023/01/30 07:55:38;;;;;;;10.15;2.17;;;5.40;99.90;;;3.81;100.00;100067.94;4992979;28;20189;-73
2023/01/30 07:58:04;;;;;;;14.13;2.75;;;5.50;99.90;;;3.82;100.00;100075.00;4991839;28;20121;-73
2023/01/30 08:00:30;;;;;;;16.20;2.63;;;5.40;99.90;;;3.79;100.00;100069.97;4992684;28;20034;-74
2023/01/30 08:02:56;;;;;;;14.98;2.60;;;5.50;99.90;;;3.86;100.00;100092.50;5007764;28;20122;-74
2023/01/30 08:05:22;;;;;;;12.45;2.13;;;5.50;99.90;;;4.00;100.00;100063.00;4993337;28;20038;-74
2023/01/30 08:07:48;;;;;;;13.75;2.80;;;5.60;99.90;;;4.08;100.00;100070.97;4993081;28;20038;-74
2023/01/30 08:10:14;;;;;;;14.23;2.25;;;5.70;99.90;;;4.13;100.00;100060.44;5007913;28;20042;-74
2023/01/30 08:12:40;;;;;;;9.23;2.30;;;5.70;99.90;;;4.12;100.00;100077.66;5008221;28;20390;-74
2023/01/30 08:15:08;;;;;;;12.20;2.10;;;5.80;99.90;;;4.28;100.00;100108.19;4997798;28;20393;-74
2023/01/30 08:17:34;;;;;;;9.55;2.30;;;5.90;99.90;;;4.42;100.00;100099.22;4992809;28;20121;-74
2023/01/30 08:19:59;;;;;;;11.32;2.75;;;6.10;99.90;;;4.50;100.00;100097.41;4992819;28;20129;-74
2023/01/30 08:22:25;;;;;;;15.45;2.58;;;6.20;99.90;;;4.54;100.00;100104.97;4992983;28;20142;-73
2023/01/30 08:24:51;;;;;;;15.30;2.00;;;6.20;99.90;;;4.56;100.00;100121.00;4992930;28;20041;-74
2023/01/30 08:27:16;;;;;;;15.02;2.30;;;6.20;99.90;;;4.55;100.00;100109.34;4992231;28;20038;-73
2023/01/30 08:29:43;;;;;;;13.57;2.60;;;6.20;99.90;;;4.53;100.00;100116.78;4992664;28;20049;-74
2023/01/30 08:32:09;;;;;;;11.68;2.40;;;6.20;99.90;;;4.50;100.00;100113.63;4999233;28;20519;-74
2023/01/30 08:34:35;;;;;;;13.50;3.15;;;6.20;99.90;;;4.42;100.00;100109.19;4992405;28;20026;-73
2023/01/30 08:37:01;;;;;;;13.00;2.42;;;6.10;99.90;;;4.37;100.00;100117.84;4992460;28;20041;-73
2023/01/30 08:39:27;;;;;;;15.48;2.40;;;6.10;99.90;;;4.41;100.00;100102.94;4995611;28;20470;-73
2023/01/30 08:41:53;;;;;;;10.57;2.10;;;6.10;99.90;;;4.49;100.00;100120.06;5011424;28;20038;-74
2023/01/30 08:44:18;;;;;;;11.05;2.17;;;6.10;99.90;;;4.48;100.00;100108.44;5000314;28;20046;-74
2023/01/30 08:46:44;;;;;;;16.70;2.60;;;6.20;99.90;;;4.56;100.00;100115.59;4996146;28;20049;-73
2023/01/30 08:49:10;;;;;;;13.63;2.42;;;6.20;99.90;;;4.53;100.00;100126.78;4996145;28;20053;-73
2023/01/30 08:51:37;;;;;;;13.82;2.42;;;6.20;99.90;;;4.55;100.00;100109.34;4995757;28;20385;-73
2023/01/30 08:54:03;;;;;;;15.65;2.63;;;6.20;99.90;;;4.60;100.00;100111.47;5000353;28;20042;-73
2023/01/30 08:56:28;;;;;;;18.05;2.80;;;6.20;99.90;;;4.63;100.00;100121.06;4995962;28;20056;-73
2023/01/30 08:58:54;;;;;;;12.00;2.20;;;6.30;99.90;;;4.60;100.00;100128.50;4995876;28;20037;-74
2023/01/30 09:01:20;;;;;;;9.70;2.40;;;6.30;99.90;;;4.56;100.00;100124.53;4996014;28;20034;-74
2023/01/30 09:03:46;;;;;;;16.77;2.92;;;6.30;99.90;;;4.58;100.00;100132.44;4996049;28;20456;-73
2023/01/30 09:06:12;;;;;;;17.20;2.38;;;6.30;99.90;;;4.61;100.00;100141.00;4996062;28;20042;-73
2023/01/30 09:08:37;;;;;;;15.35;2.55;;;6.30;99.90;;;4.68;100.00;100127.56;4995956;28;20053;-74
2023/01/30 09:11:05;;;;;;;11.85;2.22;;;6.30;99.90;;;4.74;100.00;100143.00;4995903;28;20042;-72
2023/01/30 09:13:33;;;;;;;13.20;2.27;;;6.40;99.90;;;4.82;100.00;100125.03;4995346;28;20039;-73
2023/01/30 09:15:58;;;;;;;12.93;2.13;;;6.50;99.90;;;4.83;100.00;100124.81;4995991;28;20482;-73
2023/01/30 09:18:24;;;;;;;14.18;1.85;;;6.50;99.90;;;4.96;100.00;100123.28;5004434;28;20049;-74
2023/01/30 09:20:50;;;;;;;14.57;2.65;;;6.60;99.90;;;5.00;100.00;100119.16;5005772;28;20054;-73
2023/01/30 09:23:17;;;;;;;14.27;2.15;;;6.70;99.90;;;5.15;100.00;100102.88;5001448;28;20038;-74
2023/01/30 09:25:46;;;;;;;15.90;2.05;;;6.80;99.90;;;5.11;100.00;100112.41;5001608;28;20038;-74
2023/01/30 09:28:12;;;;;;;17.13;2.38;;;6.80;99.90;;;5.04;100.00;100094.25;4994889;28;20034;-74
2023/01/30 09:30:38;;;;;;;11.63;2.20;;;6.80;99.90;;;5.04;100.00;100123.16;4995114;28;20038;-74
2023/01/30 09:33:04;;;;;;;17.15;2.20;;;6.70;99.90;;;4.81;100.00;100126.06;4995151;28;20040;-74
2023/01/30 09:35:30;;;;;;;15.32;2.70;;;6.60;99.90;;;4.52;100.00;100133.22;4995332;28;20117;-75
2023/01/30 09:37:57;;;;;;;17.45;2.83;;;6.30;99.90;;;4.42;100.00;100131.63;4995143;28;20057;-74
2023/01/30 09:40:27;;;;;;;16.88;2.75;;;6.10;99.90;;;4.42;100.00;100120.81;4995390;28;20035;-73
2023/01/30 09:43:34;;;;;;;17.60;2.90;;;6.10;99.90;;;4.54;100.00;100129.28;4994213;28;20125;-73
2023/01/30 09:46:47;;;;;;;22.77;3.60;;;6.10;99.90;;;4.66;100.00;100132.31;5001606;28;20046;-74
2023/01/30 09:49:45;;;;;;;10.20;2.33;;;6.30;99.90;;;4.80;100.00;100125.19;4994425;28;20044;-74
2023/01/30 09:52:46;;;;;;;15.05;2.83;;;6.50;99.90;;;4.88;100.00;100124.25;4995817;28;20034;-74
2023/01/30 09:55:21;;;;;;;17.25;3.28;;;6.50;99.90;;;4.95;100.00;100117.03;5005321;28;20046;-74
2023/01/30 09:57:47;;;;;;;17.55;2.72;;;6.60;99.90;;;4.97;100.00;100116.84;4996124;28;20042;-74
2023/01/30 10:00:34;;;;;;;19.63;2.38;;;6.70;99.90;;;4.98;100.00;100132.03;4995132;28;20096;-74
2023/01/30 10:03:24;;;;;;;18.73;2.95;;;6.70;99.90;;;5.02;100.00;100117.09;4999456;28;20042;-74
2023/01/30 10:06:10;;;;;;;10.07;2.08;;;;;;;5.35;96.02;100105.75;4994629;28;20048;-73
2023/01/30 10:08:55;;;;;;;12.55;2.65;;;6.70;99.90;;;5.36;94.13;100112.00;5001082;28;20038;-73
2023/01/30 10:11:52;;;;;;;14.75;2.53;;;7.30;99.90;;;5.24;95.25;100111.69;4994796;28;20033;-75
2023/01/30 10:14:51;;;;;;;13.15;2.75;;;7.10;99.90;;;5.22;95.24;100109.16;5001952;28;20029;-73
2023/01/30 10:17:57;;;;;;;14.07;2.10;;;6.90;99.90;;;5.58;94.00;100102.81;4994084;28;20034;-74
2023/01/30 10:21:13;;;;;;;13.63;2.65;;;7.00;99.90;;;5.50;92.60;100116.47;4994140;28;20303;-74
2023/01/30 10:24:13;;;;;;;16.75;2.95;;;7.30;99.90;;;5.45;92.62;100103.56;4993071;28;20548;-75
2023/01/30 10:26:41;;;;;;;12.73;2.05;;;7.10;99.90;;;6.87;83.26;100094.22;4991511;28;20640;-74
2023/01/30 10:29:30;;;;;;;11.60;2.40;;;8.00;99.90;;;7.30;79.01;100074.03;4994145;28;20105;-75
2023/01/30 10:32:25;;;;;;;11.40;2.72;;;8.80;99.90;;;7.36;72.93;100061.50;4994273;28;20478;-74